sensor_id;sensor_type;location;lat;lon;timestamp;P1;durP1;ratioP1;P2;durP2;ratioP2
31348;SDS011;17976;48.480;11.946;2023-03-23T11:45:54;2.20;;;1.38;;
31348;SDS011;17976;48.480;11.946;2023-03-23T11:51:03;4.60;;;1.33;;
31348;SDS011;17976;48.480;11.946;2023-03-23T11:53:45;3.20;;;1.20;;
31348;SDS011;17976;48.480;11.946;2023-03-23T11:58:57;1.33;;;0.77;;
31348;SDS011;17976;48.480;11.946;2023-03-23T12:06:25;2.63;;;0.95;;
31348;SDS011;17976;48.480;11.946;2023-03-23T12:11:41;6.47;;;1.00;;
31348;SDS011;17976;48.480;11.946;2023-03-23T12:16:56;2.63;;;1.00;;
31348;SDS011;17976;48.480;11.946;2023-03-23T12:21:53;2.88;;;1.02;;
31348;SDS011;17976;48.480;11.946;2023-03-23T12:24:27;8.05;;;1.88;;
31348;SDS011;17976;48.480;11.946;2023-03-23T12:27:00;6.20;;;1.52;;
31348;SDS011;17976;48.480;11.946;2023-03-23T12:29:51;8.98;;;1.67;;
31348;SDS011;17976;48.480;11.946;2023-03-23T12:35:19;1.85;;;0.93;;
31348;SDS011;17976;48.480;11.946;2023-03-23T12:43:28;3.78;;;1.10;;
31348;SDS011;17976;48.480;11.946;2023-03-23T12:48:38;7.20;;;1.63;;
31348;SDS011;17976;48.480;11.946;2023-03-23T12:51:14;10.68;;;2.00;;
31348;SDS011;17976;48.480;11.946;2023-03-23T12:53:56;11.57;;;3.88;;
31348;SDS011;17976;48.480;11.946;2023-03-23T13:01:50;4.75;;;1.30;;
31348;SDS011;17976;48.480;11.946;2023-03-23T13:04:21;5.70;;;1.90;;
31348;SDS011;17976;48.480;11.946;2023-03-23T13:06:48;10.27;;;2.25;;
31348;SDS011;17976;48.480;11.946;2023-03-23T13:11:43;14.60;;;2.85;;
31348;SDS011;17976;48.480;11.946;2023-03-23T13:22:04;1.88;;;1.30;;
31348;SDS011;17976;48.480;11.946;2023-03-23T13:24:33;2.45;;;1.20;;
31348;SDS011;17976;48.480;11.946;2023-03-23T13:27:01;5.07;;;1.90;;
31348;SDS011;17976;48.480;11.946;2023-03-23T13:29:27;6.80;;;1.33;;
31348;SDS011;17976;48.480;11.946;2023-03-23T13:32:05;5.93;;;1.73;;
31348;SDS011;17976;48.480;11.946;2023-03-23T13:34:31;10.48;;;2.35;;
31348;SDS011;17976;48.480;11.946;2023-03-23T13:37:02;13.75;;;2.28;;
31348;SDS011;17976;48.480;11.946;2023-03-23T13:39:30;3.85;;;1.35;;
31348;SDS011;17976;48.480;11.946;2023-03-23T13:49:45;5.95;;;1.83;;
31348;SDS011;17976;48.480;11.946;2023-03-23T13:52:15;9.23;;;2.05;;
31348;SDS011;17976;48.480;11.946;2023-03-23T13:54:43;9.10;;;1.83;;
31348;SDS011;17976;48.480;11.946;2023-03-23T13:57:19;4.90;;;1.40;;
31348;SDS011;17976;48.480;11.946;2023-03-23T13:59:47;5.07;;;1.55;;
31348;SDS011;17976;48.480;11.946;2023-03-23T14:05:08;5.95;;;1.40;;
31348;SDS011;17976;48.480;11.946;2023-03-23T14:07:50;4.55;;;1.40;;
31348;SDS011;17976;48.480;11.946;2023-03-23T14:10:17;2.47;;;0.90;;
31348;SDS011;17976;48.480;11.946;2023-03-23T14:12:43;1.73;;;1.10;;
31348;SDS011;17976;48.480;11.946;2023-03-23T14:15:11;2.95;;;1.48;;
31348;SDS011;17976;48.480;11.946;2023-03-23T14:17:41;1.67;;;0.90;;
31348;SDS011;17976;48.480;11.946;2023-03-23T14:20:09;4.53;;;1.33;;
31348;SDS011;17976;48.480;11.946;2023-03-23T14:22:43;4.10;;;1.17;;
31348;SDS011;17976;48.480;11.946;2023-03-23T14:25:16;2.13;;;1.25;;
31348;SDS011;17976;48.480;11.946;2023-03-23T14:27:43;0.98;;;0.80;;
31348;SDS011;17976;48.480;11.946;2023-03-23T14:30:14;3.83;;;1.08;;
31348;SDS011;17976;48.480;11.946;2023-03-23T14:32:40;1.30;;;0.95;;
31348;SDS011;17976;48.480;11.946;2023-03-23T14:35:11;1.40;;;1.00;;
31348;SDS011;17976;48.480;11.946;2023-03-23T14:37:38;3.20;;;1.15;;
31348;SDS011;17976;48.480;11.946;2023-03-23T14:40:04;2.47;;;1.30;;
31348;SDS011;17976;48.480;11.946;2023-03-23T14:42:32;5.47;;;1.67;;
31348;SDS011;17976;48.480;11.946;2023-03-23T14:44:59;2.03;;;0.90;;
31348;SDS011;17976;48.480;11.946;2023-03-23T14:49:58;4.03;;;1.15;;
31348;SDS011;17976;48.480;11.946;2023-03-23T14:52:25;3.05;;;0.95;;
31348;SDS011;17976;48.480;11.946;2023-03-23T14:54:52;1.83;;;1.00;;
31348;SDS011;17976;48.480;11.946;2023-03-23T14:59:44;8.98;;;1.30;;
31348;SDS011;17976;48.480;11.946;2023-03-23T15:02:22;2.47;;;0.82;;
31348;SDS011;17976;48.480;11.946;2023-03-23T15:04:50;3.50;;;1.10;;
31348;SDS011;17976;48.480;11.946;2023-03-23T15:07:17;2.65;;;0.90;;
31348;SDS011;17976;48.480;11.946;2023-03-23T15:09:44;4.35;;;1.30;;
31348;SDS011;17976;48.480;11.946;2023-03-23T15:12:21;1.08;;;0.85;;
31348;SDS011;17976;48.480;11.946;2023-03-23T15:14:49;3.63;;;1.45;;
31348;SDS011;17976;48.480;11.946;2023-03-23T15:17:49;2.42;;;1.10;;
31348;SDS011;17976;48.480;11.946;2023-03-23T15:20:09;4.03;;;1.30;;
31348;SDS011;17976;48.480;11.946;2023-03-23T15:22:35;4.97;;;1.20;;
31348;SDS011;17976;48.480;11.946;2023-03-23T15:27:34;6.18;;;1.90;;
31348;SDS011;17976;48.480;11.946;2023-03-23T15:30:13;3.45;;;1.60;;
31348;SDS011;17976;48.480;11.946;2023-03-23T15:32:40;4.40;;;1.63;;
31348;SDS011;17976;48.480;11.946;2023-03-23T15:35:14;1.55;;;1.00;;
31348;SDS011;17976;48.480;11.946;2023-03-23T15:37:44;2.15;;;1.25;;
31348;SDS011;17976;48.480;11.946;2023-03-23T15:40:15;6.45;;;1.77;;
31348;SDS011;17976;48.480;11.946;2023-03-23T15:42:41;2.60;;;1.55;;
31348;SDS011;17976;48.480;11.946;2023-03-23T15:50:16;3.97;;;1.60;;
31348;SDS011;17976;48.480;11.946;2023-03-23T15:52:43;8.13;;;2.53;;
31348;SDS011;17976;48.480;11.946;2023-03-23T15:55:23;6.70;;;2.67;;
31348;SDS011;17976;48.480;11.946;2023-03-23T15:57:50;4.80;;;2.70;;
31348;SDS011;17976;48.480;11.946;2023-03-23T16:00:17;6.38;;;2.63;;
31348;SDS011;17976;48.480;11.946;2023-03-23T16:02:45;5.07;;;2.63;;
31348;SDS011;17976;48.480;11.946;2023-03-23T16:05:11;5.70;;;2.97;;
31348;SDS011;17976;48.480;11.946;2023-03-23T16:07:38;5.82;;;2.30;;
31348;SDS011;17976;48.480;11.946;2023-03-23T16:10:04;7.13;;;2.45;;
31348;SDS011;17976;48.480;11.946;2023-03-23T16:12:31;7.60;;;3.65;;
31348;SDS011;17976;48.480;11.946;2023-03-23T16:14:57;7.47;;;3.28;;
31348;SDS011;17976;48.480;11.946;2023-03-23T16:17:23;4.63;;;1.92;;
31348;SDS011;17976;48.480;11.946;2023-03-23T16:19:49;2.53;;;1.67;;
31348;SDS011;17976;48.480;11.946;2023-03-23T16:22:15;2.80;;;1.70;;
31348;SDS011;17976;48.480;11.946;2023-03-23T16:24:41;5.18;;;1.73;;
31348;SDS011;17976;48.480;11.946;2023-03-23T16:27:08;2.90;;;1.50;;
31348;SDS011;17976;48.480;11.946;2023-03-23T16:29:34;4.10;;;1.27;;
31348;SDS011;17976;48.480;11.946;2023-03-23T16:32:00;3.80;;;1.98;;
31348;SDS011;17976;48.480;11.946;2023-03-23T16:34:26;6.10;;;1.58;;
31348;SDS011;17976;48.480;11.946;2023-03-23T16:36:54;1.80;;;1.60;;
31348;SDS011;17976;48.480;11.946;2023-03-23T16:39:20;4.93;;;1.92;;
31348;SDS011;17976;48.480;11.946;2023-03-23T16:41:47;5.72;;;1.38;;
31348;SDS011;17976;48.480;11.946;2023-03-23T16:44:13;2.78;;;1.48;;
31348;SDS011;17976;48.480;11.946;2023-03-23T16:46:39;2.47;;;1.80;;
31348;SDS011;17976;48.480;11.946;2023-03-23T16:49:05;7.13;;;2.33;;
31348;SDS011;17976;48.480;11.946;2023-03-23T16:51:31;3.97;;;1.83;;
31348;SDS011;17976;48.480;11.946;2023-03-23T16:53:58;3.78;;;1.60;;
31348;SDS011;17976;48.480;11.946;2023-03-23T16:56:24;4.53;;;2.13;;
31348;SDS011;17976;48.480;11.946;2023-03-23T16:58:50;3.17;;;2.17;;
31348;SDS011;17976;48.480;11.946;2023-03-23T17:01:16;3.60;;;1.70;;
31348;SDS011;17976;48.480;11.946;2023-03-23T17:03:42;3.05;;;1.45;;
31348;SDS011;17976;48.480;11.946;2023-03-23T17:06:08;6.65;;;1.65;;
31348;SDS011;17976;48.480;11.946;2023-03-23T17:08:34;2.92;;;1.75;;
31348;SDS011;17976;48.480;11.946;2023-03-23T17:11:00;5.25;;;2.10;;
31348;SDS011;17976;48.480;11.946;2023-03-23T17:13:26;5.47;;;2.25;;
31348;SDS011;17976;48.480;11.946;2023-03-23T17:15:52;2.97;;;1.65;;
31348;SDS011;17976;48.480;11.946;2023-03-23T17:18:20;6.18;;;2.03;;
31348;SDS011;17976;48.480;11.946;2023-03-23T17:20:46;2.38;;;1.55;;
31348;SDS011;17976;48.480;11.946;2023-03-23T17:23:15;3.25;;;1.55;;
31348;SDS011;17976;48.480;11.946;2023-03-23T17:25:42;2.05;;;1.42;;
31348;SDS011;17976;48.480;11.946;2023-03-23T17:28:08;2.38;;;1.70;;
31348;SDS011;17976;48.480;11.946;2023-03-23T17:30:34;3.08;;;1.83;;
31348;SDS011;17976;48.480;11.946;2023-03-23T17:33:00;4.30;;;2.28;;
31348;SDS011;17976;48.480;11.946;2023-03-23T17:35:26;7.10;;;3.03;;
31348;SDS011;17976;48.480;11.946;2023-03-23T17:37:52;5.13;;;2.50;;
31348;SDS011;17976;48.480;11.946;2023-03-23T17:40:18;7.75;;;4.28;;
31348;SDS011;17976;48.480;11.946;2023-03-23T17:42:44;6.50;;;3.55;;
31348;SDS011;17976;48.480;11.946;2023-03-23T17:45:10;4.20;;;2.40;;
31348;SDS011;17976;48.480;11.946;2023-03-23T17:47:36;5.80;;;1.90;;
31348;SDS011;17976;48.480;11.946;2023-03-23T17:50:04;3.17;;;1.92;;
31348;SDS011;17976;48.480;11.946;2023-03-23T17:52:30;5.45;;;1.95;;
31348;SDS011;17976;48.480;11.946;2023-03-23T17:54:56;3.03;;;1.80;;
31348;SDS011;17976;48.480;11.946;2023-03-23T17:57:22;3.35;;;1.80;;
31348;SDS011;17976;48.480;11.946;2023-03-23T17:59:48;5.65;;;1.80;;
31348;SDS011;17976;48.480;11.946;2023-03-23T18:02:15;3.97;;;2.28;;
31348;SDS011;17976;48.480;11.946;2023-03-23T18:04:42;4.05;;;1.83;;
31348;SDS011;17976;48.480;11.946;2023-03-23T18:07:09;5.53;;;1.80;;
31348;SDS011;17976;48.480;11.946;2023-03-23T18:09:35;4.00;;;1.52;;
31348;SDS011;17976;48.480;11.946;2023-03-23T18:12:01;6.28;;;1.95;;
31348;SDS011;17976;48.480;11.946;2023-03-23T18:14:27;1.98;;;1.38;;
31348;SDS011;17976;48.480;11.946;2023-03-23T18:16:53;4.80;;;2.05;;
31348;SDS011;17976;48.480;11.946;2023-03-23T18:19:19;2.60;;;1.92;;
31348;SDS011;17976;48.480;11.946;2023-03-23T18:21:45;3.55;;;2.25;;
31348;SDS011;17976;48.480;11.946;2023-03-23T18:24:11;4.18;;;1.77;;
31348;SDS011;17976;48.480;11.946;2023-03-23T18:26:38;3.28;;;2.47;;
31348;SDS011;17976;48.480;11.946;2023-03-23T18:29:04;4.22;;;2.40;;
31348;SDS011;17976;48.480;11.946;2023-03-23T18:31:30;4.43;;;2.83;;
31348;SDS011;17976;48.480;11.946;2023-03-23T18:33:56;6.07;;;2.58;;
31348;SDS011;17976;48.480;11.946;2023-03-23T18:36:23;3.53;;;2.35;;
31348;SDS011;17976;48.480;11.946;2023-03-23T18:38:50;4.05;;;2.72;;
31348;SDS011;17976;48.480;11.946;2023-03-23T18:41:18;5.82;;;2.17;;
31348;SDS011;17976;48.480;11.946;2023-03-23T18:43:44;3.78;;;2.55;;
31348;SDS011;17976;48.480;11.946;2023-03-23T18:46:10;5.25;;;3.30;;
31348;SDS011;17976;48.480;11.946;2023-03-23T18:48:36;5.97;;;4.10;;
31348;SDS011;17976;48.480;11.946;2023-03-23T18:51:02;11.27;;;6.00;;
31348;SDS011;17976;48.480;11.946;2023-03-23T18:53:28;5.85;;;3.72;;
31348;SDS011;17976;48.480;11.946;2023-03-23T18:56:08;7.15;;;3.33;;
31348;SDS011;17976;48.480;11.946;2023-03-23T18:58:34;19.77;;;10.98;;
31348;SDS011;17976;48.480;11.946;2023-03-23T19:01:01;14.18;;;6.70;;
31348;SDS011;17976;48.480;11.946;2023-03-23T19:03:27;7.63;;;3.80;;
31348;SDS011;17976;48.480;11.946;2023-03-23T19:05:56;10.40;;;5.75;;
31348;SDS011;17976;48.480;11.946;2023-03-23T19:08:22;6.93;;;3.55;;
31348;SDS011;17976;48.480;11.946;2023-03-23T19:10:48;4.32;;;2.55;;
31348;SDS011;17976;48.480;11.946;2023-03-23T19:13:14;4.70;;;3.00;;
31348;SDS011;17976;48.480;11.946;2023-03-23T19:15:41;5.47;;;2.88;;
31348;SDS011;17976;48.480;11.946;2023-03-23T19:18:07;5.53;;;2.95;;
31348;SDS011;17976;48.480;11.946;2023-03-23T19:20:33;6.28;;;2.78;;
31348;SDS011;17976;48.480;11.946;2023-03-23T19:22:59;3.83;;;2.38;;
31348;SDS011;17976;48.480;11.946;2023-03-23T19:25:25;5.70;;;2.80;;
31348;SDS011;17976;48.480;11.946;2023-03-23T19:27:51;8.50;;;2.60;;
31348;SDS011;17976;48.480;11.946;2023-03-23T19:30:18;6.22;;;2.90;;
31348;SDS011;17976;48.480;11.946;2023-03-23T19:32:45;5.78;;;2.90;;
31348;SDS011;17976;48.480;11.946;2023-03-23T19:35:10;7.20;;;3.15;;
31348;SDS011;17976;48.480;11.946;2023-03-23T19:37:37;7.30;;;3.95;;
31348;SDS011;17976;48.480;11.946;2023-03-23T19:40:03;6.60;;;3.60;;
31348;SDS011;17976;48.480;11.946;2023-03-23T19:42:31;10.98;;;4.50;;
31348;SDS011;17976;48.480;11.946;2023-03-23T19:44:57;7.22;;;3.67;;
31348;SDS011;17976;48.480;11.946;2023-03-23T19:47:23;5.60;;;3.03;;
31348;SDS011;17976;48.480;11.946;2023-03-23T19:49:49;7.38;;;3.53;;
31348;SDS011;17976;48.480;11.946;2023-03-23T19:52:14;6.20;;;3.10;;
31348;SDS011;17976;48.480;11.946;2023-03-23T19:54:40;4.60;;;2.70;;
31348;SDS011;17976;48.480;11.946;2023-03-23T19:57:06;3.65;;;2.53;;
31348;SDS011;17976;48.480;11.946;2023-03-23T19:59:34;3.80;;;2.40;;
31348;SDS011;17976;48.480;11.946;2023-03-23T20:02:00;5.95;;;2.67;;
31348;SDS011;17976;48.480;11.946;2023-03-23T20:04:26;5.20;;;2.45;;
31348;SDS011;17976;48.480;11.946;2023-03-23T20:06:53;6.47;;;2.65;;
31348;SDS011;17976;48.480;11.946;2023-03-23T20:09:19;5.38;;;3.45;;
31348;SDS011;17976;48.480;11.946;2023-03-23T20:11:45;6.70;;;3.25;;
31348;SDS011;17976;48.480;11.946;2023-03-23T20:14:11;4.43;;;2.47;;
31348;SDS011;17976;48.480;11.946;2023-03-23T20:16:37;4.63;;;2.85;;
31348;SDS011;17976;48.480;11.946;2023-03-23T20:19:03;5.55;;;3.15;;
31348;SDS011;17976;48.480;11.946;2023-03-23T20:21:29;5.75;;;2.88;;
31348;SDS011;17976;48.480;11.946;2023-03-23T20:23:56;9.20;;;2.92;;
31348;SDS011;17976;48.480;11.946;2023-03-23T20:26:27;7.13;;;3.33;;
31348;SDS011;17976;48.480;11.946;2023-03-23T20:28:53;6.72;;;3.20;;
31348;SDS011;17976;48.480;11.946;2023-03-23T20:31:21;6.65;;;2.60;;
31348;SDS011;17976;48.480;11.946;2023-03-23T20:33:47;4.55;;;2.42;;
31348;SDS011;17976;48.480;11.946;2023-03-23T20:36:13;5.93;;;2.33;;
31348;SDS011;17976;48.480;11.946;2023-03-23T20:38:43;7.57;;;2.58;;
31348;SDS011;17976;48.480;11.946;2023-03-23T20:41:10;5.05;;;2.72;;
31348;SDS011;17976;48.480;11.946;2023-03-23T20:43:39;5.85;;;3.08;;
31348;SDS011;17976;48.480;11.946;2023-03-23T20:46:06;6.03;;;3.65;;
31348;SDS011;17976;48.480;11.946;2023-03-23T20:48:34;4.78;;;3.05;;
31348;SDS011;17976;48.480;11.946;2023-03-23T20:51:01;7.13;;;3.05;;
31348;SDS011;17976;48.480;11.946;2023-03-23T20:53:29;5.60;;;3.10;;
31348;SDS011;17976;48.480;11.946;2023-03-23T20:55:57;8.80;;;3.40;;
31348;SDS011;17976;48.480;11.946;2023-03-23T20:58:24;9.27;;;3.45;;
